createdAt,value
2019-03-17T00:00:13.032Z,2.40
2019-03-17T00:01:13.041Z,1.90
2019-03-17T00:02:13.003Z,2.10
2019-03-17T00:03:12.954Z,2.30
2019-03-17T00:04:12.953Z,1.70
2019-03-17T00:05:12.872Z,3.80
2019-03-17T00:06:12.853Z,2.00
2019-03-17T00:07:12.825Z,1.70
2019-03-17T00:08:12.780Z,5.10
2019-03-17T00:09:12.785Z,1.70
2019-03-17T00:10:12.716Z,2.50
2019-03-17T00:11:13.025Z,2.00
2019-03-17T00:12:12.663Z,2.20
2019-03-17T00:13:12.625Z,2.20
2019-03-17T00:14:12.604Z,3.80
2019-03-17T00:15:12.563Z,3.60
2019-03-17T00:16:12.511Z,2.20
2019-03-17T00:17:12.495Z,4.00
2019-03-17T00:18:13.108Z,2.70
2019-03-17T00:19:12.471Z,5.50
2019-03-17T00:20:12.434Z,3.90
2019-03-17T00:21:12.367Z,4.50
2019-03-17T00:22:12.383Z,4.10
2019-03-17T00:23:12.529Z,3.90
2019-03-17T00:24:12.296Z,3.30
2019-03-17T00:25:12.253Z,2.90
2019-03-17T00:26:12.235Z,2.70
2019-03-17T00:27:12.166Z,4.30
2019-03-17T00:28:12.241Z,4.60
2019-03-17T00:29:12.305Z,3.80
2019-03-17T00:30:12.157Z,11.30
2019-03-17T00:31:23.251Z,72.50
2019-03-17T00:32:12.004Z,33.70
2019-03-17T00:33:12.001Z,19.10
2019-03-17T00:34:12.009Z,16.30
2019-03-17T00:35:11.937Z,16.60
2019-03-17T00:36:11.949Z,10.00
2019-03-17T00:37:11.903Z,9.20
2019-03-17T00:38:11.845Z,6.70
2019-03-17T00:39:12.002Z,5.80
2019-03-17T00:40:11.795Z,5.80
2019-03-17T00:41:11.707Z,4.10
2019-03-17T00:42:11.749Z,3.30
2019-03-17T00:43:11.661Z,3.60
2019-03-17T00:44:11.677Z,2.30
2019-03-17T00:45:12.042Z,2.80
2019-03-17T00:46:11.588Z,2.80
2019-03-17T00:47:11.582Z,4.90
2019-03-17T00:48:11.501Z,2.50
2019-03-17T00:49:11.487Z,2.00
2019-03-17T00:50:11.440Z,2.00
2019-03-17T00:51:11.804Z,2.30
2019-03-17T00:52:11.367Z,3.10
2019-03-17T00:53:11.353Z,1.80
2019-03-17T00:54:11.322Z,1.70
2019-03-17T00:55:11.298Z,1.70
2019-03-17T00:56:11.360Z,2.10
2019-03-17T00:57:11.292Z,2.00
2019-03-17T00:58:11.226Z,3.10
2019-03-17T00:59:11.182Z,2.70
2019-03-17T01:00:11.121Z,2.00
2019-03-17T01:01:11.144Z,1.80
2019-03-17T01:02:11.090Z,2.30
2019-03-17T01:03:11.015Z,2.30
2019-03-17T01:04:10.992Z,3.00
2019-03-17T01:05:10.999Z,1.70
2019-03-17T01:06:10.916Z,3.20
2019-03-17T01:07:10.975Z,2.90
2019-03-17T01:08:11.057Z,1.90
2019-03-17T01:09:10.823Z,3.30
2019-03-17T01:10:10.797Z,3.80
2019-03-17T01:11:10.757Z,3.50
2019-03-17T01:12:10.883Z,2.60
2019-03-17T01:13:10.702Z,2.80
2019-03-17T01:14:10.632Z,2.20
2019-03-17T01:15:10.668Z,2.00
2019-03-17T01:16:10.600Z,2.90
2019-03-17T01:17:10.602Z,2.10
2019-03-17T01:18:10.749Z,4.10
2019-03-17T01:19:10.527Z,2.20
2019-03-17T01:20:10.450Z,2.50
2019-03-17T01:21:10.427Z,4.00
2019-03-17T01:22:10.379Z,5.00
2019-03-17T01:23:10.347Z,1.90
2019-03-17T01:24:10.480Z,2.60
2019-03-17T01:25:10.257Z,2.50
2019-03-17T01:26:10.264Z,1.80
2019-03-17T01:27:10.226Z,2.70
2019-03-17T01:28:10.206Z,2.60
2019-03-17T01:29:10.168Z,1.90
2019-03-17T01:30:10.114Z,2.00
2019-03-17T01:31:10.093Z,9.90
2019-03-17T01:32:10.059Z,57.10
2019-03-17T01:33:10.022Z,33.00
2019-03-17T01:34:09.965Z,60.90
2019-03-17T01:35:10.252Z,98.30
2019-03-17T01:36:09.916Z,69.40
2019-03-17T01:37:09.879Z,46.50
2019-03-17T01:38:09.876Z,51.40
2019-03-17T01:39:09.981Z,43.80
2019-03-17T01:40:09.784Z,26.90
2019-03-17T01:41:09.774Z,18.30
2019-03-17T01:42:09.729Z,16.80
2019-03-17T01:43:09.714Z,16.80
2019-03-17T01:44:09.661Z,12.20
2019-03-17T01:45:09.893Z,7.70
2019-03-17T01:46:09.589Z,6.50
2019-03-17T01:47:09.555Z,7.80
2019-03-17T01:48:09.543Z,5.40
2019-03-17T01:49:09.516Z,4.30
2019-03-17T01:50:09.448Z,4.60
2019-03-17T01:51:09.420Z,2.30
2019-03-17T01:52:09.393Z,2.40
2019-03-17T01:53:09.370Z,2.70
2019-03-17T01:54:09.338Z,2.50
2019-03-17T01:55:09.314Z,2.30
2019-03-17T01:56:09.466Z,2.20
2019-03-17T01:57:09.233Z,2.20
2019-03-17T01:58:09.183Z,1.80
2019-03-17T01:59:09.168Z,1.50
2019-03-17T02:00:09.140Z,2.20
2019-03-17T02:02:09.089Z,0.80
2019-03-17T02:03:09.030Z,1.30
2019-03-17T02:04:09.020Z,1.50
2019-03-17T02:05:20.890Z,2.20
2019-03-17T02:06:09.233Z,1.70
2019-03-17T02:07:08.925Z,1.40
2019-03-17T02:08:08.861Z,1.80
2019-03-17T02:09:08.839Z,1.20
2019-03-17T02:10:08.809Z,2.20
2019-03-17T02:11:08.779Z,1.70
2019-03-17T02:12:08.896Z,2.30
2019-03-17T02:13:08.705Z,1.30
2019-03-17T02:14:08.665Z,1.70
2019-03-17T02:15:08.645Z,1.30
2019-03-17T02:16:08.621Z,1.40
2019-03-17T02:17:08.558Z,1.60
2019-03-17T02:18:08.546Z,1.30
2019-03-17T02:19:08.527Z,1.70
2019-03-17T02:20:08.473Z,1.40
2019-03-17T02:21:08.467Z,1.30
2019-03-17T02:22:08.406Z,1.90
2019-03-17T02:23:08.373Z,2.30
2019-03-17T02:24:08.372Z,1.80
2019-03-17T02:25:08.312Z,1.60
2019-03-17T02:26:08.269Z,1.80
2019-03-17T02:27:08.243Z,1.70
2019-03-17T02:28:08.345Z,1.60
2019-03-17T02:29:08.202Z,1.90
2019-03-17T02:30:08.162Z,1.80
2019-03-17T02:31:08.129Z,1.50
2019-03-17T02:32:08.083Z,1.50
2019-03-17T02:33:08.034Z,3.30
2019-03-17T02:34:11.497Z,1.70
2019-03-17T02:35:07.982Z,2.50
2019-03-17T02:36:07.958Z,1.70
2019-03-17T02:37:07.929Z,1.80
2019-03-17T02:38:07.877Z,1.30
2019-03-17T02:39:07.853Z,1.70
2019-03-17T02:40:07.838Z,1.80
2019-03-17T02:41:07.765Z,1.70
2019-03-17T02:42:07.766Z,1.80
2019-03-17T02:43:07.718Z,2.10
2019-03-17T02:44:07.668Z,2.90
2019-03-17T02:45:07.680Z,3.90
2019-03-17T02:46:07.669Z,1.50
2019-03-17T02:47:07.626Z,1.80
2019-03-17T02:48:07.744Z,1.80
2019-03-17T02:49:07.514Z,2.20
2019-03-17T02:50:07.798Z,1.60
2019-03-17T02:51:07.462Z,1.40
2019-03-17T02:52:07.424Z,1.60
2019-03-17T02:53:07.442Z,2.20
2019-03-17T02:54:07.376Z,1.80
2019-03-17T02:55:07.423Z,2.00
2019-03-17T02:56:07.387Z,2.70
2019-03-17T02:57:07.267Z,2.00
2019-03-17T02:58:07.215Z,2.00
2019-03-17T02:59:07.194Z,2.00
2019-03-17T03:00:07.510Z,2.60
2019-03-17T03:01:07.139Z,3.10
2019-03-17T03:02:07.101Z,1.80
2019-03-17T03:03:07.064Z,3.50
2019-03-17T03:04:07.030Z,2.90
2019-03-17T03:05:07.010Z,4.80
2019-03-17T03:06:06.966Z,2.10
2019-03-17T03:07:06.926Z,2.10
2019-03-17T03:10:32.869Z,3.40
2019-03-17T03:10:53.168Z,1.60
2019-03-17T03:11:53.151Z,2.30
2019-03-17T03:12:53.101Z,1.50
2019-03-17T03:13:53.067Z,1.80
2019-03-17T03:14:53.049Z,2.10
2019-03-17T03:15:53.265Z,1.50
2019-03-17T03:16:52.969Z,1.90
2019-03-17T03:17:52.940Z,2.20
2019-03-17T03:18:52.935Z,3.60
2019-03-17T03:19:52.882Z,2.30
2019-03-17T03:20:52.843Z,1.80
2019-03-17T03:21:53.012Z,3.50
2019-03-17T03:22:52.779Z,2.00
2019-03-17T03:23:52.815Z,1.70
2019-03-17T03:24:52.719Z,1.30
2019-03-17T03:25:52.674Z,4.00
2019-03-17T03:26:52.657Z,2.20
2019-03-17T03:27:52.601Z,1.50
2019-03-17T03:28:52.577Z,1.60
2019-03-17T03:29:52.545Z,3.00
2019-03-17T03:30:52.521Z,3.20
2019-03-17T03:31:52.495Z,2.30
2019-03-17T03:32:52.429Z,2.10
2019-03-17T03:33:52.448Z,1.90
2019-03-17T03:34:52.367Z,2.40
2019-03-17T03:35:52.352Z,1.60
2019-03-17T03:36:52.442Z,3.70
2019-03-17T03:37:52.262Z,2.10
2019-03-17T03:38:52.445Z,1.60
2019-03-17T03:39:52.227Z,3.60
2019-03-17T03:40:52.167Z,5.10
2019-03-17T03:41:52.139Z,2.40
2019-03-17T03:42:52.099Z,1.70
2019-03-17T03:43:52.076Z,1.50
2019-03-17T03:44:52.150Z,2.30
2019-03-17T03:45:52.022Z,4.20
2019-03-17T03:46:51.972Z,1.40
2019-03-17T03:47:51.935Z,2.50
2019-03-17T03:48:51.898Z,2.60
2019-03-17T03:49:52.043Z,1.90
2019-03-17T03:50:51.833Z,1.70
2019-03-17T03:51:51.817Z,2.20
2019-03-17T03:52:51.776Z,2.00
2019-03-17T03:53:51.729Z,1.80
2019-03-17T03:54:51.837Z,5.20
2019-03-17T03:55:51.883Z,2.00
2019-03-17T03:56:51.669Z,1.90
2019-03-17T03:57:51.613Z,2.40
2019-03-17T03:58:51.572Z,1.90
2019-03-17T03:59:51.563Z,1.70
2019-03-17T04:00:51.513Z,2.30
2019-03-17T04:01:51.479Z,1.70
2019-03-17T04:02:51.448Z,2.10
2019-03-17T04:03:51.421Z,1.80
2019-03-17T04:04:51.368Z,1.50
2019-03-17T04:05:51.353Z,2.10
2019-03-17T04:06:51.306Z,2.80
2019-03-17T04:07:51.273Z,3.10
2019-03-17T04:08:51.249Z,1.80
2019-03-17T04:09:51.197Z,1.70
2019-03-17T04:10:51.185Z,3.80
2019-03-17T04:11:51.160Z,2.40
2019-03-17T04:12:51.096Z,2.70
2019-03-17T04:13:51.064Z,1.80
2019-03-17T04:14:51.050Z,1.70
2019-03-17T04:15:51.039Z,5.60
2019-03-17T04:16:51.009Z,2.80
2019-03-17T04:17:50.948Z,2.00
2019-03-17T04:18:50.929Z,1.90
2019-03-17T04:19:50.894Z,2.50
2019-03-17T04:20:50.850Z,2.40
2019-03-17T04:21:50.970Z,1.90
2019-03-17T04:22:50.784Z,2.00
2019-03-17T04:23:50.760Z,4.20
2019-03-17T04:24:50.715Z,1.60
2019-03-17T04:25:50.674Z,2.70
2019-03-17T04:26:50.657Z,2.20
2019-03-17T04:27:50.596Z,2.70
2019-03-17T04:28:50.578Z,1.70
2019-03-17T04:29:50.556Z,2.50
2019-03-17T04:30:50.501Z,2.70
2019-03-17T04:31:50.489Z,1.80
2019-03-17T04:32:50.498Z,2.50
2019-03-17T04:33:50.416Z,3.80
2019-03-17T04:34:50.413Z,1.90
2019-03-17T04:35:50.353Z,2.40
2019-03-17T04:36:50.324Z,1.90
2019-03-17T04:37:50.299Z,2.20
2019-03-17T04:38:50.475Z,1.40
2019-03-17T04:39:50.246Z,2.40
2019-03-17T04:40:50.217Z,2.50
2019-03-17T04:41:50.153Z,2.70
2019-03-17T04:42:50.148Z,2.30
2019-03-17T04:43:50.069Z,2.80
2019-03-17T04:44:50.064Z,2.30
2019-03-17T04:45:50.028Z,3.40
2019-03-17T04:46:50.015Z,2.00
2019-03-17T04:47:49.961Z,2.00
2019-03-17T04:48:50.087Z,1.60
2019-03-17T04:49:50.185Z,1.50
2019-03-17T04:50:49.863Z,1.50
2019-03-17T04:51:49.821Z,1.90
2019-03-17T04:52:49.798Z,2.30
2019-03-17T04:53:49.753Z,1.80
2019-03-17T04:54:49.703Z,2.40
2019-03-17T04:55:49.703Z,1.70
2019-03-17T04:56:49.678Z,3.40
2019-03-17T04:57:49.620Z,2.50
2019-03-17T04:58:49.609Z,3.30
2019-03-17T04:59:49.548Z,2.10
2019-03-17T05:00:49.524Z,1.90
2019-03-17T05:01:49.489Z,1.70
2019-03-17T05:02:49.463Z,1.60
2019-03-17T05:03:49.425Z,1.90
2019-03-17T05:04:49.399Z,1.50
2019-03-17T05:05:49.404Z,2.50
2019-03-17T05:06:53.012Z,2.20
2019-03-17T05:07:49.278Z,1.80
2019-03-17T05:08:49.250Z,1.80
2019-03-17T05:09:49.204Z,1.20
2019-03-17T05:10:49.229Z,2.20
2019-03-17T05:11:49.150Z,2.30
2019-03-17T05:12:49.120Z,2.00
2019-03-17T05:13:49.078Z,1.60
2019-03-17T05:14:49.054Z,1.80
2019-03-17T05:15:49.052Z,1.60
2019-03-17T05:16:48.980Z,4.30
2019-03-17T05:17:48.960Z,1.90
2019-03-17T05:18:48.936Z,2.30
2019-03-17T05:19:48.877Z,1.80
2019-03-17T05:20:48.853Z,4.40
2019-03-17T05:21:49.052Z,2.80
2019-03-17T05:22:48.792Z,1.80
2019-03-17T05:23:48.755Z,2.40
2019-03-17T05:24:48.729Z,2.50
2019-03-17T05:25:48.693Z,2.10
2019-03-17T05:26:48.700Z,3.50
2019-03-17T05:27:48.613Z,1.30
2019-03-17T05:28:48.589Z,1.60
2019-03-17T05:29:48.556Z,2.20
2019-03-17T05:30:48.525Z,4.30
2019-03-17T05:31:48.496Z,3.30
2019-03-17T05:32:48.462Z,2.20
2019-03-17T05:33:48.542Z,3.30
2019-03-17T05:34:48.391Z,2.30
2019-03-17T05:35:48.353Z,2.80
2019-03-17T05:36:48.330Z,2.60
2019-03-17T05:37:48.295Z,2.50
2019-03-17T05:38:48.245Z,5.40
2019-03-17T05:39:48.233Z,3.40
2019-03-17T05:40:48.190Z,4.60
2019-03-17T05:41:48.169Z,3.10
2019-03-17T05:42:48.111Z,3.10
2019-03-17T05:43:48.107Z,3.50
2019-03-17T05:44:48.056Z,3.70
2019-03-17T05:45:48.040Z,4.20
2019-03-17T05:46:47.975Z,2.20
2019-03-17T05:47:47.961Z,2.30
2019-03-17T05:48:48.091Z,2.60
2019-03-17T05:49:47.900Z,4.10
2019-03-17T05:50:47.880Z,2.10
2019-03-17T05:51:47.842Z,1.80
2019-03-17T05:52:47.779Z,2.90
2019-03-17T05:53:47.765Z,1.60
2019-03-17T05:54:47.975Z,2.90
2019-03-17T05:55:47.701Z,1.70
2019-03-17T05:56:47.655Z,3.70
2019-03-17T05:57:47.634Z,2.50
2019-03-17T05:58:47.583Z,3.50
2019-03-17T05:59:47.549Z,1.80
2019-03-17T06:00:47.535Z,2.20
2019-03-17T06:01:47.498Z,1.80
2019-03-17T06:02:47.452Z,2.10
2019-03-17T06:03:47.430Z,2.70
2019-03-17T06:04:47.404Z,2.40
2019-03-17T06:05:47.565Z,4.00
2019-03-17T06:06:47.335Z,1.80
2019-03-17T06:07:47.299Z,2.00
2019-03-17T06:08:47.263Z,2.80
2019-03-17T06:09:47.237Z,4.10
2019-03-17T06:10:47.448Z,1.90
2019-03-17T06:11:47.171Z,1.80
2019-03-17T06:12:47.142Z,2.50
2019-03-17T06:13:47.101Z,2.60
2019-03-17T06:14:47.070Z,2.70
2019-03-17T06:15:47.033Z,3.50
2019-03-17T06:16:46.997Z,3.20
2019-03-17T06:17:46.973Z,2.50
2019-03-17T06:18:46.936Z,3.10
2019-03-17T06:19:46.903Z,3.60
2019-03-17T06:20:46.916Z,1.80
2019-03-17T06:21:46.844Z,1.90
2019-03-17T06:22:46.807Z,2.20
2019-03-17T06:23:46.785Z,2.50
2019-03-17T06:24:46.738Z,4.20
2019-03-17T06:25:46.718Z,2.30
2019-03-17T06:26:46.661Z,2.20
2019-03-17T06:27:46.613Z,2.70
2019-03-17T06:28:46.612Z,1.40
2019-03-17T06:29:46.553Z,1.90
2019-03-17T06:30:46.533Z,2.00
2019-03-17T06:31:46.483Z,2.20
2019-03-17T06:32:46.448Z,1.70
2019-03-17T06:33:46.425Z,2.00
2019-03-17T06:34:46.383Z,3.60
2019-03-17T06:36:46.386Z,2.60
2019-03-17T06:37:46.323Z,3.20
2019-03-17T06:38:46.252Z,3.00
2019-03-17T06:39:46.225Z,2.00
2019-03-17T06:40:46.201Z,2.20
2019-03-17T06:41:46.159Z,1.90
2019-03-17T06:42:46.190Z,3.00
2019-03-17T06:43:46.090Z,2.30
2019-03-17T06:44:46.069Z,1.80
2019-03-17T06:45:46.040Z,2.60
2019-03-17T06:46:46.331Z,2.40
2019-03-17T06:47:45.977Z,3.20
2019-03-17T06:48:45.968Z,2.50
2019-03-17T06:49:45.893Z,2.60
2019-03-17T06:50:45.863Z,2.20
2019-03-17T06:51:45.828Z,4.60
2019-03-17T06:52:45.808Z,2.20
2019-03-17T06:53:55.708Z,2.40
2019-03-17T06:54:45.733Z,2.20
2019-03-17T06:55:45.697Z,1.60
2019-03-17T06:56:45.696Z,2.10
2019-03-17T06:57:45.665Z,2.30
2019-03-17T06:58:45.593Z,2.70
2019-03-17T06:59:45.575Z,2.40
2019-03-17T07:00:45.541Z,1.80
2019-03-17T07:01:45.485Z,2.10
2019-03-17T07:02:45.480Z,1.90
2019-03-17T07:03:45.425Z,3.10
2019-03-17T07:04:45.417Z,3.20
2019-03-17T07:05:45.383Z,3.20
2019-03-17T07:06:45.337Z,4.90
2019-03-17T07:07:45.304Z,2.80
2019-03-17T07:08:45.266Z,2.20
2019-03-17T07:09:45.243Z,2.10
2019-03-17T07:10:45.199Z,2.20
2019-03-17T07:11:45.181Z,1.70
2019-03-17T07:12:45.141Z,5.40
2019-03-17T07:13:45.109Z,3.40
2019-03-17T07:14:45.060Z,7.10
2019-03-17T07:15:45.024Z,1.90
2019-03-17T07:16:45.012Z,2.70
2019-03-17T07:17:44.977Z,2.20
2019-03-17T07:18:44.940Z,2.10
2019-03-17T07:19:44.906Z,1.70
2019-03-17T07:20:44.874Z,3.90
2019-03-17T07:21:44.850Z,1.70
2019-03-17T07:22:44.785Z,1.60
2019-03-17T07:23:44.794Z,2.40
2019-03-17T07:24:44.722Z,2.50
2019-03-17T07:25:44.727Z,4.70
2019-03-17T07:26:44.655Z,2.20
2019-03-17T07:27:44.630Z,2.40
2019-03-17T07:28:44.593Z,2.00
2019-03-17T07:29:44.570Z,3.90
2019-03-17T07:30:44.891Z,2.40
2019-03-17T07:31:44.521Z,2.40
2019-03-17T07:32:44.481Z,4.50
2019-03-17T07:33:44.432Z,1.60
2019-03-17T07:34:44.388Z,3.40
2019-03-17T07:35:46.389Z,4.70
2019-03-17T07:36:44.328Z,2.20
2019-03-17T07:37:55.912Z,2.40
2019-03-17T07:38:44.267Z,1.90
2019-03-17T07:39:44.259Z,2.00
2019-03-17T07:40:44.185Z,3.70
2019-03-17T07:41:44.171Z,1.80
2019-03-17T07:42:44.145Z,3.10
2019-03-17T07:43:44.109Z,2.10
2019-03-17T07:44:44.125Z,2.30
2019-03-17T07:45:44.039Z,2.30
2019-03-17T07:46:43.998Z,3.10
2019-03-17T07:47:43.966Z,1.80
2019-03-17T07:48:43.942Z,2.30
2019-03-17T07:49:43.898Z,2.20
2019-03-17T07:50:43.877Z,2.70
2019-03-17T07:51:43.909Z,2.10
2019-03-17T07:52:43.795Z,2.10
2019-03-17T07:53:43.778Z,1.70
2019-03-17T07:54:43.745Z,2.50
2019-03-17T07:55:43.713Z,2.30
2019-03-17T07:56:43.658Z,2.00
2019-03-17T07:57:43.625Z,2.00
2019-03-17T07:58:43.598Z,3.60
2019-03-17T07:59:43.573Z,5.00
2019-03-17T08:00:43.522Z,3.60
2019-03-17T08:01:43.503Z,2.00
2019-03-17T08:02:43.474Z,3.20
2019-03-17T08:03:43.439Z,9.80
2019-03-17T08:04:46.144Z,3.50
2019-03-17T08:05:43.402Z,1.50
2019-03-17T08:06:43.340Z,3.50
2019-03-17T08:07:43.310Z,1.70
2019-03-17T08:08:43.304Z,3.90
2019-03-17T08:09:43.223Z,2.20
2019-03-17T08:10:43.206Z,2.60
2019-03-17T08:11:43.174Z,3.40
2019-03-17T08:12:43.128Z,2.30
2019-03-17T08:13:43.100Z,1.90
2019-03-17T08:14:43.072Z,2.80
2019-03-17T08:15:43.041Z,2.00
2019-03-17T08:16:43.006Z,1.70
2019-03-17T08:17:43.202Z,1.70
2019-03-17T08:18:42.948Z,3.00
2019-03-17T08:19:42.903Z,2.20
2019-03-17T08:20:42.855Z,1.90
2019-03-17T08:21:43.383Z,3.60
2019-03-17T08:22:42.811Z,1.80
2019-03-17T08:23:42.919Z,3.30
2019-03-17T08:24:42.730Z,2.40
2019-03-17T08:25:42.698Z,1.80
2019-03-17T08:26:42.672Z,2.80
2019-03-17T08:27:42.618Z,1.70
2019-03-17T08:28:42.607Z,5.10
2019-03-17T08:30:52.627Z,1.70
2019-03-17T08:31:42.495Z,1.80
2019-03-17T08:32:42.463Z,2.50
2019-03-17T08:33:42.436Z,3.40
2019-03-17T08:34:42.405Z,2.00
2019-03-17T08:35:42.363Z,1.80
2019-03-17T08:36:42.327Z,2.10
2019-03-17T08:37:42.305Z,2.00
2019-03-17T08:38:42.271Z,1.90
2019-03-17T08:39:42.273Z,1.90
2019-03-17T08:40:42.197Z,2.40
2019-03-17T08:41:42.174Z,3.80
2019-03-17T08:42:42.117Z,5.10
2019-03-17T08:43:53.469Z,2.20
2019-03-17T08:44:42.221Z,1.90
2019-03-17T08:45:42.093Z,1.50
2019-03-17T08:46:41.998Z,2.20
2019-03-17T08:47:41.968Z,1.80
2019-03-17T08:48:41.927Z,1.90
2019-03-17T08:49:41.910Z,1.60
2019-03-17T08:50:42.047Z,2.80
2019-03-17T08:51:41.836Z,1.80
2019-03-17T08:52:41.802Z,2.80
2019-03-17T08:53:41.768Z,2.90
2019-03-17T08:54:41.760Z,2.00
2019-03-17T08:55:41.901Z,5.20
2019-03-17T08:56:41.673Z,2.80
2019-03-17T08:57:41.660Z,2.40
2019-03-17T08:58:41.600Z,1.50
2019-03-17T08:59:41.591Z,2.00
2019-03-17T09:00:41.527Z,1.70
2019-03-17T09:01:41.498Z,1.50
2019-03-17T09:02:41.469Z,1.80
2019-03-17T09:03:41.421Z,3.30
2019-03-17T09:04:41.407Z,2.70
2019-03-17T09:05:41.512Z,1.70
2019-03-17T09:06:41.312Z,1.70
2019-03-17T09:07:41.303Z,3.40
2019-03-17T09:08:41.290Z,1.70
2019-03-17T09:09:41.244Z,3.40
2019-03-17T09:10:41.180Z,2.30
2019-03-17T09:11:41.156Z,2.00
2019-03-17T09:12:41.137Z,2.00
2019-03-17T09:13:41.098Z,1.70
2019-03-17T09:14:41.099Z,2.50
2019-03-17T09:15:41.038Z,1.80
2019-03-17T09:16:41.138Z,1.90
2019-03-17T09:17:40.947Z,1.70
2019-03-17T09:18:40.965Z,2.20
2019-03-17T09:19:40.906Z,2.00
2019-03-17T09:20:40.848Z,1.60
2019-03-17T09:21:40.839Z,2.30
2019-03-17T09:22:41.084Z,1.40
2019-03-17T09:23:42.723Z,1.60
2019-03-17T09:24:40.793Z,1.80
2019-03-17T09:25:40.706Z,2.30
2019-03-17T09:26:40.646Z,1.70
2019-03-17T09:27:40.636Z,1.50
2019-03-17T09:28:40.595Z,1.60
2019-03-17T09:29:40.571Z,1.90
2019-03-17T09:30:40.554Z,2.10
2019-03-17T09:31:40.513Z,1.70
2019-03-17T09:32:40.460Z,3.40
2019-03-17T09:33:40.432Z,2.00
2019-03-17T09:34:40.388Z,2.20
2019-03-17T09:35:40.352Z,3.00
2019-03-17T09:36:40.320Z,2.40
2019-03-17T09:37:40.277Z,4.10
2019-03-17T09:38:47.247Z,2.30
2019-03-17T09:39:40.217Z,2.30
2019-03-17T09:40:40.177Z,2.00
2019-03-17T09:41:40.165Z,1.50
2019-03-17T09:42:40.134Z,1.70
2019-03-17T09:43:40.227Z,1.80
2019-03-17T09:44:40.061Z,1.70
2019-03-17T09:45:40.026Z,2.10
2019-03-17T09:46:39.974Z,1.90
2019-03-17T09:47:41.189Z,1.90
2019-03-17T09:48:39.907Z,2.00
2019-03-17T09:49:39.903Z,2.00
2019-03-17T09:50:39.841Z,1.60
2019-03-17T09:51:39.824Z,5.30
2019-03-17T09:52:39.793Z,2.40
2019-03-17T09:53:39.772Z,1.80
2019-03-17T09:54:39.733Z,2.30
2019-03-17T09:55:39.683Z,1.50
2019-03-17T09:56:39.655Z,2.00
2019-03-17T09:57:39.635Z,1.70
2019-03-17T09:58:39.618Z,2.70
2019-03-17T09:59:39.540Z,2.40
2019-03-17T10:00:39.728Z,2.10
2019-03-17T10:01:39.494Z,2.00
2019-03-17T10:02:39.455Z,2.90
2019-03-17T10:03:39.435Z,1.70
2019-03-17T10:04:39.398Z,2.40
2019-03-17T10:06:39.351Z,1.00
2019-03-17T10:07:39.284Z,2.60
2019-03-17T10:08:39.289Z,2.00
2019-03-17T10:09:39.223Z,2.20
2019-03-17T10:10:39.190Z,1.90
2019-03-17T10:11:39.349Z,1.80
2019-03-17T10:12:39.154Z,1.80
2019-03-17T10:13:39.085Z,1.80
2019-03-17T10:14:39.059Z,1.90
2019-03-17T10:15:39.005Z,1.80
2019-03-17T10:16:38.988Z,2.10
2019-03-17T10:17:39.157Z,2.00
2019-03-17T10:18:38.903Z,2.00
2019-03-17T10:19:38.897Z,2.00
2019-03-17T10:20:38.847Z,2.30
2019-03-17T10:21:38.823Z,1.80
2019-03-17T10:22:39.860Z,2.60
2019-03-17T10:23:39.099Z,1.90
2019-03-17T10:24:38.728Z,1.70
2019-03-17T10:25:38.708Z,2.00
2019-03-17T10:26:38.652Z,2.10
2019-03-17T10:27:38.624Z,1.90
2019-03-17T10:28:38.587Z,2.00
2019-03-17T10:29:38.553Z,3.40
2019-03-17T10:30:38.503Z,1.30
2019-03-17T10:31:38.487Z,3.10
2019-03-17T10:32:38.446Z,2.40
2019-03-17T10:33:38.409Z,2.20
2019-03-17T10:34:38.378Z,3.60
2019-03-17T10:35:38.349Z,2.20
2019-03-17T10:36:38.322Z,2.10
2019-03-17T10:37:38.283Z,2.30
2019-03-17T10:38:38.437Z,1.80
2019-03-17T10:39:38.198Z,2.80
2019-03-17T10:40:38.178Z,1.80
2019-03-17T10:41:38.356Z,2.10
2019-03-17T10:42:38.117Z,1.30
2019-03-17T10:43:38.327Z,1.70
2019-03-17T10:44:38.518Z,2.40
2019-03-17T10:45:38.040Z,1.80
2019-03-17T10:46:37.985Z,1.70
2019-03-17T10:47:37.970Z,2.10
2019-03-17T10:48:37.919Z,2.10
2019-03-17T10:49:37.884Z,1.50
2019-03-17T10:50:49.027Z,2.20
2019-03-17T10:51:37.823Z,1.90
2019-03-17T10:52:37.789Z,2.00
2019-03-17T10:53:37.750Z,1.90
2019-03-17T10:54:37.718Z,1.70
2019-03-17T10:55:37.701Z,1.80
2019-03-17T10:56:37.651Z,2.20
2019-03-17T10:57:37.619Z,2.00
2019-03-17T10:58:37.567Z,2.00
2019-03-17T10:59:37.764Z,4.80
2019-03-17T11:00:37.511Z,2.50
2019-03-17T11:01:37.491Z,2.40
2019-03-17T11:02:37.453Z,2.40
2019-03-17T11:03:37.417Z,3.80
2019-03-17T11:04:37.386Z,2.40
2019-03-17T11:05:37.349Z,5.70
2019-03-17T11:06:37.310Z,2.50
2019-03-17T11:07:37.287Z,2.50
2019-03-17T11:08:37.235Z,2.90
2019-03-17T11:09:37.233Z,1.50
2019-03-17T11:10:37.191Z,2.60
2019-03-17T11:11:37.347Z,4.50
2019-03-17T11:12:37.096Z,3.50
2019-03-17T11:13:37.079Z,6.40
2019-03-17T11:14:38.276Z,3.80
2019-03-17T11:15:37.010Z,5.80
2019-03-17T11:16:36.992Z,5.10
2019-03-17T11:17:37.081Z,5.10
2019-03-17T11:18:36.918Z,4.70
2019-03-17T11:19:36.887Z,6.70
2019-03-17T11:20:36.830Z,9.10
2019-03-17T11:21:36.821Z,6.40
2019-03-17T11:22:36.788Z,6.60
2019-03-17T11:23:36.731Z,6.50
2019-03-17T11:24:36.700Z,5.50
2019-03-17T11:25:36.725Z,5.20
2019-03-17T11:26:36.648Z,3.10
2019-03-17T11:27:36.620Z,4.60
2019-03-17T11:28:36.620Z,9.60
2019-03-17T11:29:36.558Z,17.70
2019-03-17T11:30:36.521Z,36.60
2019-03-17T11:31:36.502Z,48.60
2019-03-17T11:32:36.448Z,62.80
2019-03-17T11:33:36.400Z,45.10
2019-03-17T11:34:36.399Z,22.50
2019-03-17T11:35:36.337Z,7.60
2019-03-17T11:36:36.304Z,13.10
2019-03-17T11:37:36.292Z,10.90
2019-03-17T11:38:36.256Z,10.10
2019-03-17T11:40:36.251Z,3.80
2019-03-17T11:41:36.159Z,3.80
2019-03-17T11:42:36.207Z,3.20
2019-03-17T11:43:36.085Z,4.10
2019-03-17T11:44:36.070Z,2.90
2019-03-17T11:45:36.025Z,1.90
2019-03-17T11:46:35.981Z,5.30
2019-03-17T11:47:35.974Z,2.10
2019-03-17T11:48:35.929Z,2.30
2019-03-17T11:49:35.910Z,1.90
2019-03-17T11:50:35.878Z,2.60
2019-03-17T11:51:35.809Z,2.10
2019-03-17T11:52:35.781Z,2.40
2019-03-17T11:53:35.747Z,2.10
2019-03-17T11:54:35.748Z,2.50
2019-03-17T11:55:35.718Z,1.80
2019-03-17T11:56:35.669Z,1.90
2019-03-17T11:57:35.625Z,2.00
2019-03-17T11:58:35.595Z,2.00
2019-03-17T11:59:35.649Z,2.20
2019-03-17T12:00:35.684Z,1.70
2019-03-17T12:01:35.508Z,2.30
2019-03-17T12:02:35.454Z,4.40
2019-03-17T12:03:35.454Z,1.50
2019-03-17T12:04:35.384Z,1.90
2019-03-17T12:05:35.370Z,2.10
2019-03-17T12:06:35.337Z,2.20
2019-03-17T12:07:35.305Z,1.70
2019-03-17T12:08:35.275Z,1.70
2019-03-17T12:09:35.240Z,1.80
2019-03-17T12:10:35.205Z,3.60
2019-03-17T12:11:35.231Z,1.70
2019-03-17T12:12:35.160Z,1.70
2019-03-17T12:13:35.094Z,3.10
2019-03-17T12:14:35.090Z,1.70
2019-03-17T12:15:35.058Z,2.90
2019-03-17T12:16:34.994Z,2.00
2019-03-17T12:17:35.045Z,2.30
2019-03-17T12:18:34.964Z,3.40
2019-03-17T12:19:34.923Z,2.80
2019-03-17T12:20:34.884Z,1.50
2019-03-17T12:21:34.848Z,2.30
2019-03-17T12:22:34.912Z,1.40
2019-03-17T12:23:34.803Z,2.40
2019-03-17T12:24:34.750Z,1.70
2019-03-17T12:25:34.695Z,2.10
2019-03-17T12:26:34.676Z,2.30
2019-03-17T12:27:34.646Z,3.40
2019-03-17T12:28:34.622Z,2.40
2019-03-17T12:29:34.600Z,5.50
2019-03-17T12:30:34.557Z,3.40
2019-03-17T12:31:34.528Z,3.00
2019-03-17T12:32:34.491Z,8.50
2019-03-17T12:33:34.480Z,2.70
2019-03-17T12:34:34.434Z,2.60
2019-03-17T12:35:34.390Z,2.20
2019-03-17T12:36:34.388Z,2.90
2019-03-17T12:37:34.324Z,1.90
2019-03-17T12:38:34.293Z,2.40
2019-03-17T12:39:34.266Z,2.40
2019-03-17T12:40:34.244Z,2.30
2019-03-17T12:41:34.201Z,3.60
2019-03-17T12:42:34.166Z,2.20
2019-03-17T12:43:34.275Z,2.10
2019-03-17T12:44:34.097Z,2.80
2019-03-17T12:45:34.062Z,1.80
2019-03-17T12:46:34.035Z,2.20
2019-03-17T12:47:34.039Z,2.70
2019-03-17T12:48:33.969Z,4.70
2019-03-17T12:49:33.937Z,2.30
2019-03-17T12:50:33.883Z,2.10
2019-03-17T12:51:33.867Z,2.90
2019-03-17T12:52:33.845Z,2.00
2019-03-17T12:53:33.802Z,1.80
2019-03-17T12:54:33.795Z,2.00
2019-03-17T12:55:33.747Z,2.50
2019-03-17T12:56:33.723Z,2.00
2019-03-17T12:57:33.675Z,2.40
2019-03-17T12:58:33.641Z,2.60
2019-03-17T12:59:33.596Z,2.00
2019-03-17T13:00:33.721Z,1.70
2019-03-17T13:01:33.535Z,3.30
2019-03-17T13:02:33.512Z,1.90
2019-03-17T13:03:33.483Z,2.00
2019-03-17T13:04:33.453Z,2.70
2019-03-17T13:05:33.412Z,2.80
2019-03-17T13:06:33.391Z,3.10
2019-03-17T13:07:33.347Z,2.10
2019-03-17T13:08:33.320Z,2.10
2019-03-17T13:09:33.318Z,2.80
2019-03-17T13:10:33.246Z,2.40
2019-03-17T13:11:33.207Z,1.70
2019-03-17T13:12:33.166Z,2.20
2019-03-17T13:13:33.152Z,1.70
2019-03-17T13:14:33.118Z,2.60
2019-03-17T13:15:33.125Z,1.80
2019-03-17T13:16:33.053Z,2.10
2019-03-17T13:17:33.022Z,2.80
2019-03-17T13:18:32.988Z,1.80
2019-03-17T13:19:32.966Z,2.30
2019-03-17T13:20:32.926Z,2.20
2019-03-17T13:21:32.881Z,2.20
2019-03-17T13:22:32.883Z,2.50
2019-03-17T13:23:32.829Z,1.90